sensor_id;sensor_type;location;lat;lon;timestamp;P1;durP1;ratioP1;P2;durP2;ratioP2
1887;SDS011;944;51.574;6.980;2024-03-02T00:01:56;2.33;;;1.80;;
1887;SDS011;944;51.574;6.980;2024-03-02T00:04:23;5.10;;;2.17;;
1887;SDS011;944;51.574;6.980;2024-03-02T00:06:51;6.33;;;1.90;;
1887;SDS011;944;51.574;6.980;2024-03-02T00:09:23;9.50;;;2.07;;
1887;SDS011;944;51.574;6.980;2024-03-02T00:11:52;2.03;;;1.50;;
1887;SDS011;944;51.574;6.980;2024-03-02T00:14:24;4.00;;;1.80;;
1887;SDS011;944;51.574;6.980;2024-03-02T00:16:54;2.53;;;1.77;;
1887;SDS011;944;51.574;6.980;2024-03-02T00:19:23;2.23;;;1.80;;
1887;SDS011;944;51.574;6.980;2024-03-02T00:21:53;1.87;;;1.77;;
1887;SDS011;944;51.574;6.980;2024-03-02T00:24:20;1.73;;;1.63;;
1887;SDS011;944;51.574;6.980;2024-03-02T00:26:57;2.50;;;1.57;;
1887;SDS011;944;51.574;6.980;2024-03-02T00:29:26;2.53;;;1.87;;
1887;SDS011;944;51.574;6.980;2024-03-02T00:31:56;6.00;;;2.27;;
1887;SDS011;944;51.574;6.980;2024-03-02T00:34:24;1.90;;;1.70;;
1887;SDS011;944;51.574;6.980;2024-03-02T00:36:51;3.20;;;1.93;;
1887;SDS011;944;51.574;6.980;2024-03-02T00:39:18;3.70;;;2.03;;
1887;SDS011;944;51.574;6.980;2024-03-02T00:41:45;2.83;;;1.90;;
1887;SDS011;944;51.574;6.980;2024-03-02T00:44:12;1.90;;;1.70;;
1887;SDS011;944;51.574;6.980;2024-03-02T00:46:43;3.30;;;1.60;;
1887;SDS011;944;51.574;6.980;2024-03-02T00:49:11;2.90;;;1.60;;
1887;SDS011;944;51.574;6.980;2024-03-02T00:51:51;2.07;;;1.70;;
1887;SDS011;944;51.574;6.980;2024-03-02T00:54:20;2.03;;;1.80;;
1887;SDS011;944;51.574;6.980;2024-03-02T00:56:49;2.80;;;2.00;;
1887;SDS011;944;51.574;6.980;2024-03-02T00:59:16;1.70;;;1.60;;
1887;SDS011;944;51.574;6.980;2024-03-02T01:01:45;2.90;;;1.70;;
1887;SDS011;944;51.574;6.980;2024-03-02T01:04:14;2.50;;;1.53;;
1887;SDS011;944;51.574;6.980;2024-03-02T01:06:41;1.90;;;1.67;;
1887;SDS011;944;51.574;6.980;2024-03-02T01:09:09;2.10;;;1.50;;
1887;SDS011;944;51.574;6.980;2024-03-02T01:11:37;3.23;;;2.03;;
1887;SDS011;944;51.574;6.980;2024-03-02T01:14:04;1.70;;;1.60;;
1887;SDS011;944;51.574;6.980;2024-03-02T01:16:31;1.50;;;1.40;;
1887;SDS011;944;51.574;6.980;2024-03-02T01:18:59;3.80;;;1.60;;
1887;SDS011;944;51.574;6.980;2024-03-02T01:21:26;1.80;;;1.70;;
1887;SDS011;944;51.574;6.980;2024-03-02T01:23:56;2.57;;;2.00;;
1887;SDS011;944;51.574;6.980;2024-03-02T01:26:23;1.60;;;1.50;;
1887;SDS011;944;51.574;6.980;2024-03-02T01:28:50;3.33;;;1.47;;
1887;SDS011;944;51.574;6.980;2024-03-02T01:31:17;1.87;;;1.60;;
1887;SDS011;944;51.574;6.980;2024-03-02T01:33:44;6.37;;;2.30;;
1887;SDS011;944;51.574;6.980;2024-03-02T01:36:12;2.57;;;2.37;;
1887;SDS011;944;51.574;6.980;2024-03-02T01:38:42;3.57;;;2.40;;
1887;SDS011;944;51.574;6.980;2024-03-02T01:41:09;4.53;;;2.50;;
1887;SDS011;944;51.574;6.980;2024-03-02T01:43:36;4.27;;;1.80;;
1887;SDS011;944;51.574;6.980;2024-03-02T01:46:03;2.47;;;1.83;;
1887;SDS011;944;51.574;6.980;2024-03-02T01:48:30;3.83;;;2.23;;
1887;SDS011;944;51.574;6.980;2024-03-02T01:50:59;5.63;;;2.30;;
1887;SDS011;944;51.574;6.980;2024-03-02T01:53:27;3.97;;;2.40;;
1887;SDS011;944;51.574;6.980;2024-03-02T01:55:55;2.27;;;1.67;;
1887;SDS011;944;51.574;6.980;2024-03-02T01:58:22;2.13;;;1.60;;
1887;SDS011;944;51.574;6.980;2024-03-02T02:00:49;1.73;;;1.60;;
1887;SDS011;944;51.574;6.980;2024-03-02T02:03:16;2.07;;;1.47;;
1887;SDS011;944;51.574;6.980;2024-03-02T02:05:43;4.40;;;1.97;;
1887;SDS011;944;51.574;6.980;2024-03-02T02:08:10;2.80;;;1.80;;
1887;SDS011;944;51.574;6.980;2024-03-02T02:10:39;4.03;;;2.10;;
1887;SDS011;944;51.574;6.980;2024-03-02T02:13:06;3.03;;;1.70;;
1887;SDS011;944;51.574;6.980;2024-03-02T02:15:33;6.23;;;2.47;;
1887;SDS011;944;51.574;6.980;2024-03-02T02:18:01;2.90;;;1.87;;
1887;SDS011;944;51.574;6.980;2024-03-02T02:20:29;3.27;;;1.70;;
1887;SDS011;944;51.574;6.980;2024-03-02T02:22:58;3.47;;;2.20;;
1887;SDS011;944;51.574;6.980;2024-03-02T02:25:26;2.97;;;1.60;;
1887;SDS011;944;51.574;6.980;2024-03-02T02:27:54;1.43;;;1.33;;
1887;SDS011;944;51.574;6.980;2024-03-02T02:30:22;1.33;;;1.23;;
1887;SDS011;944;51.574;6.980;2024-03-02T02:32:50;2.33;;;1.53;;
1887;SDS011;944;51.574;6.980;2024-03-02T02:35:18;2.90;;;1.53;;
1887;SDS011;944;51.574;6.980;2024-03-02T02:37:45;1.73;;;1.60;;
1887;SDS011;944;51.574;6.980;2024-03-02T02:40:15;1.50;;;1.40;;
1887;SDS011;944;51.574;6.980;2024-03-02T02:42:43;5.80;;;1.67;;
1887;SDS011;944;51.574;6.980;2024-03-02T02:45:10;4.53;;;1.57;;
1887;SDS011;944;51.574;6.980;2024-03-02T02:47:38;1.90;;;1.60;;
1887;SDS011;944;51.574;6.980;2024-03-02T02:50:14;2.47;;;1.70;;
1887;SDS011;944;51.574;6.980;2024-03-02T02:52:42;2.30;;;1.63;;
1887;SDS011;944;51.574;6.980;2024-03-02T02:55:10;6.27;;;2.47;;
1887;SDS011;944;51.574;6.980;2024-03-02T02:57:40;2.60;;;1.50;;
1887;SDS011;944;51.574;6.980;2024-03-02T03:00:09;2.10;;;1.37;;
1887;SDS011;944;51.574;6.980;2024-03-02T03:02:40;2.10;;;1.50;;
1887;SDS011;944;51.574;6.980;2024-03-02T03:05:08;2.77;;;1.80;;
1887;SDS011;944;51.574;6.980;2024-03-02T03:07:39;5.77;;;1.77;;
1887;SDS011;944;51.574;6.980;2024-03-02T03:10:07;3.00;;;1.47;;
1887;SDS011;944;51.574;6.980;2024-03-02T03:12:34;5.17;;;2.07;;
1887;SDS011;944;51.574;6.980;2024-03-02T03:15:03;4.40;;;1.77;;
1887;SDS011;944;51.574;6.980;2024-03-02T03:17:32;3.47;;;1.67;;
1887;SDS011;944;51.574;6.980;2024-03-02T03:19:59;2.07;;;1.43;;
1887;SDS011;944;51.574;6.980;2024-03-02T03:22:26;6.63;;;2.07;;
1887;SDS011;944;51.574;6.980;2024-03-02T03:24:53;2.30;;;2.10;;
1887;SDS011;944;51.574;6.980;2024-03-02T03:27:20;5.10;;;2.50;;
1887;SDS011;944;51.574;6.980;2024-03-02T03:29:47;3.83;;;2.23;;
1887;SDS011;944;51.574;6.980;2024-03-02T03:32:16;3.70;;;2.37;;
1887;SDS011;944;51.574;6.980;2024-03-02T03:34:42;2.37;;;1.90;;
1887;SDS011;944;51.574;6.980;2024-03-02T03:37:10;2.87;;;2.30;;
1887;SDS011;944;51.574;6.980;2024-03-02T03:39:37;8.53;;;2.10;;
1887;SDS011;944;51.574;6.980;2024-03-02T03:42:06;3.77;;;2.27;;
1887;SDS011;944;51.574;6.980;2024-03-02T03:44:33;3.17;;;1.70;;
1887;SDS011;944;51.574;6.980;2024-03-02T03:47:00;3.10;;;2.23;;
1887;SDS011;944;51.574;6.980;2024-03-02T03:49:29;2.80;;;2.13;;
1887;SDS011;944;51.574;6.980;2024-03-02T03:51:56;3.40;;;2.10;;
1887;SDS011;944;51.574;6.980;2024-03-02T03:54:23;9.87;;;1.93;;
1887;SDS011;944;51.574;6.980;2024-03-02T03:56:50;3.23;;;1.80;;
1887;SDS011;944;51.574;6.980;2024-03-02T03:59:17;2.47;;;2.00;;
1887;SDS011;944;51.574;6.980;2024-03-02T04:01:44;6.27;;;2.70;;
1887;SDS011;944;51.574;6.980;2024-03-02T04:04:11;2.90;;;1.70;;
1887;SDS011;944;51.574;6.980;2024-03-02T04:06:40;3.67;;;1.90;;
1887;SDS011;944;51.574;6.980;2024-03-02T04:09:08;4.60;;;2.23;;
1887;SDS011;944;51.574;6.980;2024-03-02T04:11:35;4.20;;;2.10;;
1887;SDS011;944;51.574;6.980;2024-03-02T04:14:02;4.27;;;1.83;;
1887;SDS011;944;51.574;6.980;2024-03-02T04:16:31;3.60;;;1.80;;
1887;SDS011;944;51.574;6.980;2024-03-02T04:18:58;4.23;;;2.20;;
1887;SDS011;944;51.574;6.980;2024-03-02T04:21:25;1.83;;;1.73;;
1887;SDS011;944;51.574;6.980;2024-03-02T04:23:53;3.40;;;1.83;;
1887;SDS011;944;51.574;6.980;2024-03-02T04:26:23;3.00;;;2.00;;
1887;SDS011;944;51.574;6.980;2024-03-02T04:28:50;2.97;;;1.80;;
1887;SDS011;944;51.574;6.980;2024-03-02T04:31:17;1.77;;;1.67;;
1887;SDS011;944;51.574;6.980;2024-03-02T04:33:44;2.50;;;1.73;;
1887;SDS011;944;51.574;6.980;2024-03-02T04:36:11;2.23;;;1.90;;
1887;SDS011;944;51.574;6.980;2024-03-02T04:38:38;2.93;;;1.83;;
1887;SDS011;944;51.574;6.980;2024-03-02T04:41:07;6.13;;;1.70;;
1887;SDS011;944;51.574;6.980;2024-03-02T04:43:34;5.53;;;2.40;;
1887;SDS011;944;51.574;6.980;2024-03-02T04:46:01;2.63;;;1.77;;
1887;SDS011;944;51.574;6.980;2024-03-02T04:48:28;2.80;;;1.87;;
1887;SDS011;944;51.574;6.980;2024-03-02T04:50:55;2.07;;;1.87;;
1887;SDS011;944;51.574;6.980;2024-03-02T04:53:22;2.23;;;1.70;;
1887;SDS011;944;51.574;6.980;2024-03-02T04:55:49;2.57;;;1.80;;
1887;SDS011;944;51.574;6.980;2024-03-02T04:58:46;3.00;;;2.30;;
1887;SDS011;944;51.574;6.980;2024-03-02T05:01:13;2.33;;;1.90;;
1887;SDS011;944;51.574;6.980;2024-03-02T05:03:41;4.73;;;2.20;;
1887;SDS011;944;51.574;6.980;2024-03-02T05:06:08;2.60;;;2.40;;
1887;SDS011;944;51.574;6.980;2024-03-02T05:08:35;4.43;;;2.17;;
1887;SDS011;944;51.574;6.980;2024-03-02T05:11:02;1.97;;;1.63;;
1887;SDS011;944;51.574;6.980;2024-03-02T05:13:43;3.70;;;1.90;;
1887;SDS011;944;51.574;6.980;2024-03-02T05:16:12;3.93;;;2.07;;
1887;SDS011;944;51.574;6.980;2024-03-02T05:18:39;2.53;;;1.37;;
1887;SDS011;944;51.574;6.980;2024-03-02T05:21:06;1.80;;;1.70;;
1887;SDS011;944;51.574;6.980;2024-03-02T05:23:33;2.90;;;2.07;;
1887;SDS011;944;51.574;6.980;2024-03-02T05:26:00;3.37;;;1.93;;
1887;SDS011;944;51.574;6.980;2024-03-02T05:28:27;4.20;;;1.80;;
1887;SDS011;944;51.574;6.980;2024-03-02T05:30:56;2.10;;;1.87;;
1887;SDS011;944;51.574;6.980;2024-03-02T05:33:23;5.27;;;1.90;;
1887;SDS011;944;51.574;6.980;2024-03-02T05:35:50;2.03;;;1.80;;
1887;SDS011;944;51.574;6.980;2024-03-02T05:38:17;2.27;;;2.00;;
1887;SDS011;944;51.574;6.980;2024-03-02T05:40:44;5.20;;;2.03;;
1887;SDS011;944;51.574;6.980;2024-03-02T05:43:11;2.40;;;1.80;;
1887;SDS011;944;51.574;6.980;2024-03-02T05:45:40;2.33;;;1.63;;
1887;SDS011;944;51.574;6.980;2024-03-02T05:48:08;3.10;;;1.73;;
1887;SDS011;944;51.574;6.980;2024-03-02T05:50:35;2.20;;;2.00;;
1887;SDS011;944;51.574;6.980;2024-03-02T05:53:04;3.13;;;2.20;;
1887;SDS011;944;51.574;6.980;2024-03-02T05:55:31;2.83;;;2.10;;
1887;SDS011;944;51.574;6.980;2024-03-02T05:57:58;6.60;;;2.07;;
1887;SDS011;944;51.574;6.980;2024-03-02T06:00:40;4.20;;;2.17;;
1887;SDS011;944;51.574;6.980;2024-03-02T06:03:09;4.93;;;1.97;;
1887;SDS011;944;51.574;6.980;2024-03-02T06:05:36;4.37;;;2.00;;
1887;SDS011;944;51.574;6.980;2024-03-02T06:08:03;5.03;;;2.70;;
1887;SDS011;944;51.574;6.980;2024-03-02T06:10:30;4.73;;;3.33;;
1887;SDS011;944;51.574;6.980;2024-03-02T06:12:57;5.40;;;3.37;;
1887;SDS011;944;51.574;6.980;2024-03-02T06:15:24;6.57;;;3.10;;
1887;SDS011;944;51.574;6.980;2024-03-02T06:17:51;3.40;;;2.30;;
1887;SDS011;944;51.574;6.980;2024-03-02T06:20:20;2.77;;;2.10;;
1887;SDS011;944;51.574;6.980;2024-03-02T06:22:47;2.27;;;2.03;;
1887;SDS011;944;51.574;6.980;2024-03-02T06:25:14;4.20;;;2.60;;
1887;SDS011;944;51.574;6.980;2024-03-02T06:27:41;15.37;;;2.40;;
1887;SDS011;944;51.574;6.980;2024-03-02T06:30:08;3.43;;;2.27;;
1887;SDS011;944;51.574;6.980;2024-03-02T06:32:37;2.90;;;2.00;;
1887;SDS011;944;51.574;6.980;2024-03-02T06:35:04;1.97;;;1.77;;
1887;SDS011;944;51.574;6.980;2024-03-02T06:37:36;3.00;;;2.60;;
1887;SDS011;944;51.574;6.980;2024-03-02T06:40:06;3.20;;;2.17;;
1887;SDS011;944;51.574;6.980;2024-03-02T06:42:34;4.30;;;2.10;;
1887;SDS011;944;51.574;6.980;2024-03-02T06:45:01;4.87;;;2.17;;
1887;SDS011;944;51.574;6.980;2024-03-02T06:47:29;6.33;;;2.20;;
1887;SDS011;944;51.574;6.980;2024-03-02T06:49:56;4.20;;;2.20;;
1887;SDS011;944;51.574;6.980;2024-03-02T06:52:23;3.13;;;2.27;;
1887;SDS011;944;51.574;6.980;2024-03-02T06:54:52;4.13;;;2.63;;
1887;SDS011;944;51.574;6.980;2024-03-02T06:57:19;3.70;;;2.40;;
1887;SDS011;944;51.574;6.980;2024-03-02T06:59:46;4.10;;;2.50;;
1887;SDS011;944;51.574;6.980;2024-03-02T07:05:55;3.47;;;1.83;;
1887;SDS011;944;51.574;6.980;2024-03-02T07:08:23;3.60;;;2.50;;
1887;SDS011;944;51.574;6.980;2024-03-02T07:10:51;5.80;;;2.40;;
1887;SDS011;944;51.574;6.980;2024-03-02T07:13:18;3.40;;;2.13;;
1887;SDS011;944;51.574;6.980;2024-03-02T07:15:45;3.20;;;2.00;;
1887;SDS011;944;51.574;6.980;2024-03-02T07:18:36;2.70;;;2.10;;
1887;SDS011;944;51.574;6.980;2024-03-02T07:21:06;2.90;;;2.40;;
1887;SDS011;944;51.574;6.980;2024-03-02T07:23:33;5.23;;;2.70;;
1887;SDS011;944;51.574;6.980;2024-03-02T07:26:02;5.67;;;2.37;;
1887;SDS011;944;51.574;6.980;2024-03-02T07:28:29;5.60;;;2.80;;
1887;SDS011;944;51.574;6.980;2024-03-02T07:30:57;7.47;;;2.40;;
1887;SDS011;944;51.574;6.980;2024-03-02T07:33:25;2.47;;;2.23;;
1887;SDS011;944;51.574;6.980;2024-03-02T07:35:52;9.27;;;5.63;;
1887;SDS011;944;51.574;6.980;2024-03-02T07:38:22;3.13;;;2.53;;
1887;SDS011;944;51.574;6.980;2024-03-02T07:40:49;3.00;;;2.40;;
1887;SDS011;944;51.574;6.980;2024-03-02T07:43:18;4.70;;;2.83;;
1887;SDS011;944;51.574;6.980;2024-03-02T07:45:45;3.50;;;3.00;;
1887;SDS011;944;51.574;6.980;2024-03-02T07:48:12;6.03;;;3.13;;
1887;SDS011;944;51.574;6.980;2024-03-02T07:50:40;3.40;;;2.37;;
1887;SDS011;944;51.574;6.980;2024-03-02T07:53:08;4.63;;;2.60;;
1887;SDS011;944;51.574;6.980;2024-03-02T07:55:35;8.43;;;2.90;;
1887;SDS011;944;51.574;6.980;2024-03-02T07:58:02;5.23;;;2.80;;
1887;SDS011;944;51.574;6.980;2024-03-02T08:00:30;3.07;;;2.70;;
1887;SDS011;944;51.574;6.980;2024-03-02T08:02:57;11.33;;;3.57;;
1887;SDS011;944;51.574;6.980;2024-03-02T08:05:25;10.47;;;3.70;;
1887;SDS011;944;51.574;6.980;2024-03-02T08:07:52;3.00;;;2.50;;
1887;SDS011;944;51.574;6.980;2024-03-02T08:10:19;3.27;;;2.93;;
1887;SDS011;944;51.574;6.980;2024-03-02T08:12:46;8.37;;;2.60;;
1887;SDS011;944;51.574;6.980;2024-03-02T08:15:13;4.30;;;2.30;;
1887;SDS011;944;51.574;6.980;2024-03-02T08:17:42;4.77;;;2.63;;
1887;SDS011;944;51.574;6.980;2024-03-02T08:20:13;3.83;;;2.73;;
1887;SDS011;944;51.574;6.980;2024-03-02T08:22:40;5.53;;;3.00;;
1887;SDS011;944;51.574;6.980;2024-03-02T08:25:07;7.93;;;2.70;;
1887;SDS011;944;51.574;6.980;2024-03-02T08:31:15;6.10;;;3.23;;
1887;SDS011;944;51.574;6.980;2024-03-02T08:33:46;6.20;;;2.57;;
1887;SDS011;944;51.574;6.980;2024-03-02T08:36:13;8.03;;;4.53;;
1887;SDS011;944;51.574;6.980;2024-03-02T08:38:40;4.27;;;2.50;;
1887;SDS011;944;51.574;6.980;2024-03-02T08:41:09;6.50;;;2.83;;
1887;SDS011;944;51.574;6.980;2024-03-02T08:43:38;4.23;;;2.67;;
1887;SDS011;944;51.574;6.980;2024-03-02T08:46:06;3.37;;;2.50;;
1887;SDS011;944;51.574;6.980;2024-03-02T08:48:33;6.00;;;2.70;;
1887;SDS011;944;51.574;6.980;2024-03-02T08:51:02;3.83;;;2.80;;
1887;SDS011;944;51.574;6.980;2024-03-02T08:53:33;5.10;;;3.40;;
1887;SDS011;944;51.574;6.980;2024-03-02T08:56:06;5.10;;;2.60;;
1887;SDS011;944;51.574;6.980;2024-03-02T08:58:35;5.47;;;2.60;;
1887;SDS011;944;51.574;6.980;2024-03-02T09:01:08;5.97;;;2.70;;
1887;SDS011;944;51.574;6.980;2024-03-02T09:03:38;5.20;;;3.10;;
1887;SDS011;944;51.574;6.980;2024-03-02T09:06:09;6.10;;;2.63;;
1887;SDS011;944;51.574;6.980;2024-03-02T09:08:36;6.90;;;2.73;;
1887;SDS011;944;51.574;6.980;2024-03-02T09:11:03;9.83;;;2.40;;
1887;SDS011;944;51.574;6.980;2024-03-02T09:13:31;4.00;;;2.10;;
1887;SDS011;944;51.574;6.980;2024-03-02T09:16:02;6.70;;;1.97;;
1887;SDS011;944;51.574;6.980;2024-03-02T09:18:30;7.17;;;3.47;;
1887;SDS011;944;51.574;6.980;2024-03-02T09:20:57;2.80;;;2.43;;
1887;SDS011;944;51.574;6.980;2024-03-02T09:23:25;5.20;;;2.70;;
1887;SDS011;944;51.574;6.980;2024-03-02T09:25:54;3.27;;;2.50;;
1887;SDS011;944;51.574;6.980;2024-03-02T09:28:23;6.83;;;3.27;;
1887;SDS011;944;51.574;6.980;2024-03-02T09:30:53;12.40;;;2.53;;
1887;SDS011;944;51.574;6.980;2024-03-02T09:33:24;4.00;;;2.50;;
1887;SDS011;944;51.574;6.980;2024-03-02T09:35:51;5.80;;;2.40;;
1887;SDS011;944;51.574;6.980;2024-03-02T09:38:21;4.47;;;2.27;;
1887;SDS011;944;51.574;6.980;2024-03-02T09:40:53;4.37;;;1.97;;
1887;SDS011;944;51.574;6.980;2024-03-02T09:43:29;5.90;;;2.40;;
1887;SDS011;944;51.574;6.980;2024-03-02T09:45:58;7.33;;;2.33;;
1887;SDS011;944;51.574;6.980;2024-03-02T09:48:34;3.87;;;2.10;;
1887;SDS011;944;51.574;6.980;2024-03-02T09:51:22;5.60;;;2.63;;
1887;SDS011;944;51.574;6.980;2024-03-02T09:57:52;3.03;;;1.93;;
1887;SDS011;944;51.574;6.980;2024-03-02T10:00:34;2.80;;;2.00;;
1887;SDS011;944;51.574;6.980;2024-03-02T10:03:10;3.90;;;2.37;;
1887;SDS011;944;51.574;6.980;2024-03-02T10:05:44;3.50;;;1.67;;
1887;SDS011;944;51.574;6.980;2024-03-02T10:08:12;2.40;;;1.87;;
1887;SDS011;944;51.574;6.980;2024-03-02T10:10:41;4.30;;;2.33;;
1887;SDS011;944;51.574;6.980;2024-03-02T10:13:11;5.67;;;2.53;;
1887;SDS011;944;51.574;6.980;2024-03-02T10:15:44;4.20;;;1.70;;
1887;SDS011;944;51.574;6.980;2024-03-02T10:22:04;3.00;;;2.10;;
1887;SDS011;944;51.574;6.980;2024-03-02T10:24:41;4.23;;;1.80;;
1887;SDS011;944;51.574;6.980;2024-03-02T10:27:09;3.37;;;2.00;;
1887;SDS011;944;51.574;6.980;2024-03-02T10:29:45;3.37;;;1.90;;
1887;SDS011;944;51.574;6.980;2024-03-02T10:32:12;2.30;;;1.67;;
1887;SDS011;944;51.574;6.980;2024-03-02T10:34:40;2.47;;;1.63;;
1887;SDS011;944;51.574;6.980;2024-03-02T10:40:57;9.50;;;1.70;;
1887;SDS011;944;51.574;6.980;2024-03-02T10:43:26;4.37;;;1.83;;
1887;SDS011;944;51.574;6.980;2024-03-02T10:46:05;1.83;;;1.73;;
1887;SDS011;944;51.574;6.980;2024-03-02T10:48:50;2.43;;;1.40;;
1887;SDS011;944;51.574;6.980;2024-03-02T10:51:21;2.90;;;1.63;;
1887;SDS011;944;51.574;6.980;2024-03-02T10:57:29;2.70;;;1.53;;
1887;SDS011;944;51.574;6.980;2024-03-02T11:00:13;4.87;;;1.93;;
1887;SDS011;944;51.574;6.980;2024-03-02T11:02:55;6.47;;;1.60;;
1887;SDS011;944;51.574;6.980;2024-03-02T11:09:09;4.00;;;2.40;;
1887;SDS011;944;51.574;6.980;2024-03-02T11:11:40;2.27;;;1.77;;
1887;SDS011;944;51.574;6.980;2024-03-02T11:14:17;4.40;;;1.50;;
1887;SDS011;944;51.574;6.980;2024-03-02T11:16:50;2.20;;;1.47;;
1887;SDS011;944;51.574;6.980;2024-03-02T11:19:25;7.03;;;1.60;;
1887;SDS011;944;51.574;6.980;2024-03-02T11:21:55;6.83;;;1.57;;
1887;SDS011;944;51.574;6.980;2024-03-02T11:24:31;10.70;;;2.07;;
1887;SDS011;944;51.574;6.980;2024-03-02T11:30:53;3.63;;;1.70;;
1887;SDS011;944;51.574;6.980;2024-03-02T11:33:23;3.70;;;1.63;;
1887;SDS011;944;51.574;6.980;2024-03-02T11:35:56;2.03;;;1.60;;
1887;SDS011;944;51.574;6.980;2024-03-02T11:38:32;2.10;;;1.50;;
1887;SDS011;944;51.574;6.980;2024-03-02T11:44:41;5.37;;;1.80;;
1887;SDS011;944;51.574;6.980;2024-03-02T11:47:11;2.10;;;1.50;;
1887;SDS011;944;51.574;6.980;2024-03-02T11:49:42;3.43;;;1.53;;
1887;SDS011;944;51.574;6.980;2024-03-02T11:52:14;6.40;;;2.23;;
1887;SDS011;944;51.574;6.980;2024-03-02T11:54:56;3.70;;;1.40;;
1887;SDS011;944;51.574;6.980;2024-03-02T11:57:24;1.50;;;1.40;;
1887;SDS011;944;51.574;6.980;2024-03-02T11:59:59;1.80;;;1.50;;
1887;SDS011;944;51.574;6.980;2024-03-02T12:02:28;3.50;;;1.70;;
1887;SDS011;944;51.574;6.980;2024-03-02T12:04:55;3.30;;;1.70;;
1887;SDS011;944;51.574;6.980;2024-03-02T12:07:39;1.50;;;1.30;;
1887;SDS011;944;51.574;6.980;2024-03-02T12:10:12;3.00;;;1.47;;
1887;SDS011;944;51.574;6.980;2024-03-02T12:12:41;3.77;;;1.70;;
1887;SDS011;944;51.574;6.980;2024-03-02T12:15:15;3.93;;;1.83;;
1887;SDS011;944;51.574;6.980;2024-03-02T12:17:55;4.13;;;1.70;;
1887;SDS011;944;51.574;6.980;2024-03-02T12:20:34;7.03;;;1.50;;
1887;SDS011;944;51.574;6.980;2024-03-02T12:23:02;2.00;;;1.70;;
1887;SDS011;944;51.574;6.980;2024-03-02T12:25:40;3.23;;;1.50;;
1887;SDS011;944;51.574;6.980;2024-03-02T12:28:17;3.07;;;1.43;;
1887;SDS011;944;51.574;6.980;2024-03-02T12:34:36;2.20;;;1.40;;
1887;SDS011;944;51.574;6.980;2024-03-02T12:37:11;4.33;;;1.60;;
1887;SDS011;944;51.574;6.980;2024-03-02T12:40:13;3.73;;;1.73;;
1887;SDS011;944;51.574;6.980;2024-03-02T12:45:45;2.53;;;1.20;;
1887;SDS011;944;51.574;6.980;2024-03-02T12:48:29;2.90;;;1.60;;
1887;SDS011;944;51.574;6.980;2024-03-02T12:51:01;1.50;;;1.23;;
1887;SDS011;944;51.574;6.980;2024-03-02T12:53:45;4.27;;;1.47;;
1887;SDS011;944;51.574;6.980;2024-03-02T12:56:51;5.00;;;1.93;;
1887;SDS011;944;51.574;6.980;2024-03-02T12:59:25;1.80;;;1.37;;
1887;SDS011;944;51.574;6.980;2024-03-02T13:02:20;2.60;;;1.60;;
1887;SDS011;944;51.574;6.980;2024-03-02T13:05:16;4.73;;;1.60;;
1887;SDS011;944;51.574;6.980;2024-03-02T15:28:14;1.77;;;1.60;;
1887;SDS011;944;51.574;6.980;2024-03-02T15:31:36;8.60;;;2.93;;
1887;SDS011;944;51.574;6.980;2024-03-02T15:35:07;1.50;;;1.40;;
1887;SDS011;944;51.574;6.980;2024-03-02T15:46:06;2.53;;;1.40;;
1887;SDS011;944;51.574;6.980;2024-03-02T15:52:58;4.07;;;1.80;;
1887;SDS011;944;51.574;6.980;2024-03-02T15:59:38;2.20;;;1.80;;
1887;SDS011;944;51.574;6.980;2024-03-02T16:02:22;2.20;;;1.70;;
1887;SDS011;944;51.574;6.980;2024-03-02T16:05:14;4.33;;;2.10;;
1887;SDS011;944;51.574;6.980;2024-03-02T16:07:53;2.50;;;2.20;;
1887;SDS011;944;51.574;6.980;2024-03-02T16:10:38;5.40;;;2.17;;
1887;SDS011;944;51.574;6.980;2024-03-02T16:13:18;1.87;;;1.77;;
1887;SDS011;944;51.574;6.980;2024-03-02T16:23:53;2.30;;;1.80;;
1887;SDS011;944;51.574;6.980;2024-03-02T16:30:01;1.67;;;1.57;;
1887;SDS011;944;51.574;6.980;2024-03-02T16:59:34;4.43;;;2.30;;
1887;SDS011;944;51.574;6.980;2024-03-02T17:28:32;2.70;;;1.63;;
1887;SDS011;944;51.574;6.980;2024-03-02T17:31:36;4.70;;;2.20;;
1887;SDS011;944;51.574;6.980;2024-03-02T17:34:26;6.80;;;1.77;;
1887;SDS011;944;51.574;6.980;2024-03-02T17:41:34;1.83;;;1.70;;
1887;SDS011;944;51.574;6.980;2024-03-02T17:44:22;3.10;;;1.77;;
1887;SDS011;944;51.574;6.980;2024-03-02T17:47:18;1.93;;;1.60;;
1887;SDS011;944;51.574;6.980;2024-03-02T17:50:21;2.20;;;2.00;;
1887;SDS011;944;51.574;6.980;2024-03-02T17:52:59;1.70;;;1.60;;
1887;SDS011;944;51.574;6.980;2024-03-02T17:55:42;3.70;;;2.00;;
1887;SDS011;944;51.574;6.980;2024-03-02T17:58:41;4.50;;;1.70;;
1887;SDS011;944;51.574;6.980;2024-03-02T18:01:17;3.13;;;2.23;;
1887;SDS011;944;51.574;6.980;2024-03-02T18:03:57;4.03;;;2.40;;
1887;SDS011;944;51.574;6.980;2024-03-02T18:06:44;5.77;;;3.00;;
1887;SDS011;944;51.574;6.980;2024-03-02T18:09:26;2.67;;;2.33;;
1887;SDS011;944;51.574;6.980;2024-03-02T18:12:58;5.67;;;3.07;;
1887;SDS011;944;51.574;6.980;2024-03-02T18:15:51;6.57;;;1.90;;
1887;SDS011;944;51.574;6.980;2024-03-02T18:18:27;2.00;;;1.80;;
1887;SDS011;944;51.574;6.980;2024-03-02T18:21:28;3.73;;;2.43;;
1887;SDS011;944;51.574;6.980;2024-03-02T18:28:00;1.80;;;1.70;;
1887;SDS011;944;51.574;6.980;2024-03-02T18:30:42;1.87;;;1.60;;
1887;SDS011;944;51.574;6.980;2024-03-02T18:33:41;6.57;;;2.23;;
1887;SDS011;944;51.574;6.980;2024-03-02T18:46:53;1.73;;;1.63;;
1887;SDS011;944;51.574;6.980;2024-03-02T18:49:29;2.00;;;1.90;;
1887;SDS011;944;51.574;6.980;2024-03-02T18:52:20;1.90;;;1.80;;
1887;SDS011;944;51.574;6.980;2024-03-02T19:02:17;3.50;;;2.57;;
1887;SDS011;944;51.574;6.980;2024-03-02T19:04:49;2.00;;;1.80;;
1887;SDS011;944;51.574;6.980;2024-03-02T19:07:39;3.17;;;2.40;;
1887;SDS011;944;51.574;6.980;2024-03-02T19:10:15;3.57;;;2.40;;
1887;SDS011;944;51.574;6.980;2024-03-02T19:12:57;3.80;;;2.10;;
1887;SDS011;944;51.574;6.980;2024-03-02T19:15:30;3.20;;;2.30;;
1887;SDS011;944;51.574;6.980;2024-03-02T19:18:00;2.20;;;2.00;;
1887;SDS011;944;51.574;6.980;2024-03-02T19:20:30;2.80;;;2.00;;
1887;SDS011;944;51.574;6.980;2024-03-02T19:23:05;2.43;;;2.23;;
1887;SDS011;944;51.574;6.980;2024-03-02T19:29:23;3.53;;;2.60;;
1887;SDS011;944;51.574;6.980;2024-03-02T19:31:55;6.07;;;2.70;;
1887;SDS011;944;51.574;6.980;2024-03-02T19:34:40;2.83;;;2.20;;
1887;SDS011;944;51.574;6.980;2024-03-02T19:37:18;5.10;;;2.63;;
1887;SDS011;944;51.574;6.980;2024-03-02T19:39:46;3.80;;;3.00;;
1887;SDS011;944;51.574;6.980;2024-03-02T19:42:23;3.00;;;2.73;;
1887;SDS011;944;51.574;6.980;2024-03-02T19:45:09;4.20;;;2.60;;
1887;SDS011;944;51.574;6.980;2024-03-02T19:47:55;2.67;;;2.43;;
1887;SDS011;944;51.574;6.980;2024-03-02T19:50:40;2.90;;;2.43;;
1887;SDS011;944;51.574;6.980;2024-03-02T19:53:21;6.33;;;2.43;;
1887;SDS011;944;51.574;6.980;2024-03-02T19:56:06;2.60;;;2.30;;
1887;SDS011;944;51.574;6.980;2024-03-02T19:58:41;3.47;;;2.60;;
1887;SDS011;944;51.574;6.980;2024-03-02T20:04:54;2.97;;;2.40;;
1887;SDS011;944;51.574;6.980;2024-03-02T20:07:29;2.73;;;2.53;;
1887;SDS011;944;51.574;6.980;2024-03-02T20:10:08;3.87;;;2.80;;
1887;SDS011;944;51.574;6.980;2024-03-02T20:12:42;5.13;;;2.83;;
1887;SDS011;944;51.574;6.980;2024-03-02T20:15:21;2.60;;;2.40;;
1887;SDS011;944;51.574;6.980;2024-03-02T20:17:58;2.97;;;2.60;;
1887;SDS011;944;51.574;6.980;2024-03-02T20:25:13;4.00;;;3.00;;
1887;SDS011;944;51.574;6.980;2024-03-02T20:27:43;4.80;;;3.47;;
1887;SDS011;944;51.574;6.980;2024-03-02T20:30:21;3.60;;;2.80;;
1887;SDS011;944;51.574;6.980;2024-03-02T20:33:13;2.57;;;2.37;;
1887;SDS011;944;51.574;6.980;2024-03-02T20:35:43;5.70;;;2.77;;
1887;SDS011;944;51.574;6.980;2024-03-02T20:38:21;3.77;;;2.83;;
1887;SDS011;944;51.574;6.980;2024-03-02T20:40:54;3.70;;;2.93;;
1887;SDS011;944;51.574;6.980;2024-03-02T20:43:30;3.27;;;2.90;;
1887;SDS011;944;51.574;6.980;2024-03-02T20:46:10;3.97;;;3.00;;
1887;SDS011;944;51.574;6.980;2024-03-02T20:48:49;3.00;;;2.53;;
1887;SDS011;944;51.574;6.980;2024-03-02T20:51:31;3.53;;;2.90;;
1887;SDS011;944;51.574;6.980;2024-03-02T20:54:04;4.10;;;3.40;;
1887;SDS011;944;51.574;6.980;2024-03-02T21:00:08;7.47;;;3.00;;
1887;SDS011;944;51.574;6.980;2024-03-02T21:02:41;4.13;;;2.80;;
1887;SDS011;944;51.574;6.980;2024-03-02T21:05:47;4.40;;;3.30;;
1887;SDS011;944;51.574;6.980;2024-03-02T21:08:27;4.33;;;3.20;;